createdAt,value
2018-08-04T00:00:11.208Z,27.80
2018-08-04T00:01:19.715Z,27.74
2018-08-04T00:02:22.594Z,27.77
2018-08-04T00:03:19.529Z,27.79
2018-08-04T00:04:29.378Z,27.76
2018-08-04T00:05:39.109Z,27.67
2018-08-04T00:06:50.992Z,27.67
2018-08-04T00:08:56.854Z,27.67
2018-08-04T00:09:56.249Z,27.58
2018-08-04T00:11:09.357Z,27.58
2018-08-04T00:13:12.037Z,27.59
2018-08-04T00:16:31.319Z,27.46
2018-08-04T00:17:34.291Z,27.47
2018-08-04T00:18:45.563Z,27.38
2018-08-04T00:19:50.801Z,27.29
2018-08-04T00:20:56.844Z,27.32
2018-08-04T00:22:09.140Z,27.33
2018-08-04T00:23:04.132Z,27.33
2018-08-04T00:24:15.918Z,27.32
2018-08-04T00:27:32.126Z,27.33
2018-08-04T00:28:34.490Z,27.21
2018-08-04T00:29:52.724Z,27.20
2018-08-04T00:30:50.479Z,27.21
2018-08-04T00:31:52.639Z,27.21
2018-08-04T00:32:54.082Z,27.19
2018-08-04T00:33:55.422Z,27.24
2018-08-04T00:35:10.998Z,27.21
2018-08-04T00:36:06.498Z,27.13
2018-08-04T00:37:15.826Z,27.13
2018-08-04T00:38:25.567Z,27.09
2018-08-04T00:39:28.746Z,27.04
2018-08-04T00:40:41.969Z,27.01
2018-08-04T00:41:49.751Z,27.02
2018-08-04T00:42:34.717Z,27.02
2018-08-04T00:43:48.955Z,27.02
2018-08-04T00:45:02.277Z,26.98
2018-08-04T00:48:23.806Z,26.94
2018-08-04T00:49:22.788Z,26.99
2018-08-04T00:51:27.003Z,26.99
2018-08-04T00:52:40.426Z,27.01
2018-08-04T00:53:39.922Z,27.02
2018-08-04T00:54:50.069Z,26.98
2018-08-04T00:55:57.449Z,26.95
2018-08-04T00:56:57.663Z,26.96
2018-08-04T00:57:59.718Z,26.89
2018-08-04T00:59:37.924Z,26.91
2018-08-04T01:00:27.077Z,26.95
2018-08-04T01:01:18.991Z,26.95
2018-08-04T01:02:25.966Z,26.87
2018-08-04T01:03:53.932Z,26.98
2018-08-04T01:05:40.532Z,26.91
2018-08-04T01:06:54.366Z,26.91
2018-08-04T01:07:57.554Z,26.87
2018-08-04T01:08:48.751Z,26.87
2018-08-04T01:10:24.502Z,26.94
2018-08-04T01:11:14.073Z,26.86
2018-08-04T01:12:22.988Z,26.86
2018-08-04T01:13:27.293Z,26.89
2018-08-04T01:16:42.576Z,26.80
2018-08-04T01:18:02.351Z,26.69
2018-08-04T01:18:48.432Z,26.74
2018-08-04T01:20:24.179Z,26.79
2018-08-04T01:21:03.602Z,26.72
2018-08-04T01:21:55.730Z,26.69
2018-08-04T01:24:37.427Z,26.68
2018-08-04T01:25:09.174Z,26.68
2018-08-04T01:26:44.200Z,26.67
2018-08-04T01:27:40.421Z,26.69
2018-08-04T01:28:44.731Z,26.64
2018-08-04T01:29:41.562Z,26.54
2018-08-04T01:30:48.840Z,26.50
2018-08-04T01:31:55.710Z,26.52
2018-08-04T01:32:58.176Z,26.39
2018-08-04T01:34:01.378Z,26.35
2018-08-04T01:35:06.291Z,26.37
2018-08-04T01:36:16.249Z,26.32
2018-08-04T01:37:15.413Z,26.28
2018-08-04T01:38:41.328Z,26.29
2018-08-04T01:39:27.412Z,26.22
2018-08-04T01:40:33.974Z,26.24
2018-08-04T01:41:40.739Z,26.09
2018-08-04T01:42:44.128Z,26.15
2018-08-04T01:43:53.352Z,26.09
2018-08-04T01:44:58.174Z,26.08
2018-08-04T01:46:09.145Z,26.11
2018-08-04T01:47:09.969Z,26.09
2018-08-04T01:48:09.988Z,26.11
2018-08-04T01:49:16.744Z,25.98
2018-08-04T01:50:16.351Z,25.97
2018-08-04T01:51:26.592Z,26.01
2018-08-04T01:52:43.800Z,26.04
2018-08-04T01:53:43.052Z,25.84
2018-08-04T01:54:44.332Z,25.89
2018-08-04T01:56:05.438Z,25.90
2018-08-04T01:56:57.051Z,25.75
2018-08-04T01:58:02.587Z,25.77
2018-08-04T01:59:08.564Z,25.77
2018-08-04T02:00:20.628Z,25.72
2018-08-04T02:01:15.107Z,25.67
2018-08-04T02:03:35.912Z,25.57
2018-08-04T02:05:38.898Z,25.62
2018-08-04T02:07:05.952Z,25.62
2018-08-04T02:07:55.909Z,25.49
2018-08-04T02:08:54.800Z,25.46
2018-08-04T02:10:00.541Z,25.43
2018-08-04T02:11:03.623Z,25.42
2018-08-04T02:12:23.702Z,25.37
2018-08-04T02:13:16.951Z,25.44
2018-08-04T02:14:25.978Z,25.35
2018-08-04T02:16:41.251Z,25.47
2018-08-04T02:17:38.290Z,25.35
2018-08-04T02:18:50.381Z,25.38
2018-08-04T02:20:14.583Z,25.35
2018-08-04T02:20:58.795Z,25.28
2018-08-04T02:22:08.431Z,25.27
2018-08-04T02:23:22.260Z,25.28
2018-08-04T02:24:09.672Z,25.31
2018-08-04T02:25:22.796Z,25.22
2018-08-04T02:26:49.932Z,25.17
2018-08-04T02:29:15.860Z,25.24
2018-08-04T02:29:49.246Z,25.24
2018-08-04T02:30:57.035Z,25.20
2018-08-04T02:31:59.808Z,25.16
2018-08-04T02:33:05.859Z,25.16
2018-08-04T02:34:41.608Z,25.20
2018-08-04T02:37:07.125Z,25.17
2018-08-04T02:37:34.875Z,25.17
2018-08-04T02:38:49.841Z,25.10
2018-08-04T02:41:35.119Z,25.10
2018-08-04T02:42:00.790Z,25.10
2018-08-04T02:42:59.396Z,25.12
2018-08-04T02:44:29.112Z,25.16
2018-08-04T02:45:26.958Z,25.07
2018-08-04T02:46:31.369Z,25.13
2018-08-04T02:47:23.800Z,25.09
2018-08-04T02:48:29.134Z,25.07
2018-08-04T02:51:57.934Z,24.95
2018-08-04T02:53:24.364Z,24.97
2018-08-04T02:55:04.820Z,24.92
2018-08-04T02:56:08.417Z,24.87
2018-08-04T02:57:19.727Z,24.83
2018-08-04T02:58:32.605Z,24.87
2018-08-04T02:59:38.545Z,24.76
2018-08-04T03:00:37.428Z,24.76
2018-08-04T03:01:38.563Z,24.75
2018-08-04T03:02:55.880Z,24.76
2018-08-04T03:03:48.925Z,24.71
2018-08-04T03:04:58.356Z,24.73
2018-08-04T03:05:59.697Z,24.71
2018-08-04T03:07:01.445Z,24.76
2018-08-04T03:08:33.030Z,24.73
2018-08-04T03:09:16.909Z,24.79
2018-08-04T03:10:28.506Z,24.75
2018-08-04T03:13:53.725Z,24.60
2018-08-04T03:14:43.183Z,24.67
2018-08-04T03:15:58.346Z,24.61
2018-08-04T03:18:01.641Z,24.42
2018-08-04T03:19:07.898Z,24.47
2018-08-04T03:20:23.880Z,24.39
2018-08-04T03:21:17.129Z,24.32
2018-08-04T03:22:26.148Z,24.23
2018-08-04T03:24:33.132Z,24.13
2018-08-04T03:25:54.539Z,24.12
2018-08-04T03:27:52.812Z,24.02
2018-08-04T03:29:08.799Z,24.00
2018-08-04T03:30:09.625Z,24.01
2018-08-04T03:31:15.985Z,23.90
2018-08-04T03:33:13.646Z,23.90
2018-08-04T03:36:39.172Z,23.86
2018-08-04T03:37:45.321Z,23.87
2018-08-04T03:38:47.379Z,23.86
2018-08-04T03:39:53.326Z,23.89
2018-08-04T03:40:58.455Z,23.89
2018-08-04T03:42:20.380Z,23.89
2018-08-04T03:43:31.654Z,23.90
2018-08-04T03:44:26.852Z,23.86
2018-08-04T03:45:09.754Z,23.90
2018-08-04T03:46:27.992Z,23.75
2018-08-04T03:47:31.071Z,23.72
2018-08-04T03:48:30.979Z,23.67
2018-08-04T03:49:43.072Z,23.61
2018-08-04T03:50:41.036Z,23.62
2018-08-04T03:51:51.494Z,23.60
2018-08-04T03:53:06.246Z,23.52
2018-08-04T03:55:07.284Z,23.39
2018-08-04T03:56:14.360Z,23.38
2018-08-04T03:57:15.291Z,23.47
2018-08-04T03:58:28.612Z,23.39
2018-08-04T03:59:38.811Z,23.46
2018-08-04T04:01:41.847Z,23.46
2018-08-04T04:03:03.771Z,23.46
2018-08-04T04:03:47.905Z,23.35
2018-08-04T04:04:51.910Z,23.47
2018-08-04T04:05:56.629Z,23.45
2018-08-04T04:07:16.091Z,23.34
2018-08-04T04:08:28.081Z,23.42
2018-08-04T04:09:20.310Z,23.47
2018-08-04T04:10:48.378Z,23.43
2018-08-04T04:11:50.432Z,23.45
2018-08-04T04:12:39.340Z,23.42
2018-08-04T04:14:47.696Z,23.50
2018-08-04T04:16:12.588Z,23.39
2018-08-04T04:18:22.230Z,23.40
2018-08-04T04:19:19.645Z,23.34
2018-08-04T04:20:31.977Z,23.40
2018-08-04T04:21:47.141Z,23.43
2018-08-04T04:22:37.013Z,23.43
2018-08-04T04:23:55.042Z,23.40
2018-08-04T04:26:27.320Z,23.35
2018-08-04T04:27:08.482Z,23.34
2018-08-04T04:28:22.008Z,23.45
2018-08-04T04:29:10.445Z,23.39
2018-08-04T04:32:32.181Z,23.45
2018-08-04T04:33:23.893Z,23.47
2018-08-04T04:34:46.842Z,23.45
2018-08-04T04:35:34.973Z,23.40
2018-08-04T04:38:08.988Z,23.50
2018-08-04T04:39:04.082Z,23.49
2018-08-04T04:40:06.140Z,23.58
2018-08-04T04:41:32.261Z,23.55
2018-08-04T04:42:00.424Z,23.61
2018-08-04T04:43:13.438Z,23.62
2018-08-04T04:44:19.592Z,23.65
2018-08-04T04:45:34.447Z,23.71
2018-08-04T04:46:30.668Z,23.75
2018-08-04T04:47:47.780Z,23.65
2018-08-04T04:48:46.664Z,23.64
2018-08-04T04:49:57.934Z,23.71
2018-08-04T04:50:50.164Z,23.64
2018-08-04T04:51:57.850Z,23.64
2018-08-04T04:53:01.955Z,23.67
2018-08-04T04:54:19.172Z,23.71
2018-08-04T04:55:17.131Z,23.70
2018-08-04T04:56:23.178Z,23.75
2018-08-04T04:57:24.006Z,23.79
2018-08-04T04:58:37.228Z,23.77
2018-08-04T04:59:43.683Z,23.76
2018-08-04T05:00:48.507Z,23.80
2018-08-04T05:01:48.618Z,23.75
2018-08-04T05:02:58.562Z,23.79
2018-08-04T05:04:09.632Z,23.87
2018-08-04T05:04:55.608Z,23.92
2018-08-04T05:06:13.851Z,23.87
2018-08-04T05:07:16.004Z,23.92
2018-08-04T05:08:23.796Z,23.97
2018-08-04T05:09:33.943Z,24.00
2018-08-04T05:10:33.133Z,23.97
2018-08-04T05:11:46.248Z,23.89
2018-08-04T05:12:47.790Z,23.94
2018-08-04T05:13:53.129Z,23.97
2018-08-04T05:15:00.201Z,24.02
2018-08-04T05:16:04.310Z,24.00
2018-08-04T05:18:15.585Z,24.05
2018-08-04T05:21:31.845Z,24.05
2018-08-04T05:23:38.468Z,24.05
2018-08-04T05:24:38.990Z,24.10
2018-08-04T05:25:45.957Z,24.00
2018-08-04T05:29:12.101Z,24.16
2018-08-04T05:30:20.300Z,24.12
2018-08-04T05:31:33.419Z,24.16
2018-08-04T05:32:23.797Z,24.19
2018-08-04T05:33:42.340Z,24.23
2018-08-04T05:34:46.548Z,24.23
2018-08-04T05:35:39.492Z,24.29
2018-08-04T05:36:47.591Z,24.26
2018-08-04T05:37:53.641Z,24.24
2018-08-04T05:39:11.364Z,24.27
2018-08-04T05:40:06.049Z,24.26
2018-08-04T05:41:11.687Z,24.29
2018-08-04T05:42:08.625Z,24.27
2018-08-04T05:43:18.270Z,24.27
2018-08-04T05:46:45.018Z,24.41
2018-08-04T05:47:36.219Z,24.49
2018-08-04T05:48:44.517Z,24.50
2018-08-04T05:49:42.580Z,24.42
2018-08-04T05:51:03.276Z,24.56
2018-08-04T05:53:01.551Z,24.57
2018-08-04T05:55:27.872Z,24.56
2018-08-04T05:56:24.105Z,24.57
2018-08-04T05:57:33.739Z,24.60
2018-08-04T06:00:37.178Z,24.61
2018-08-04T06:01:59.171Z,24.73
2018-08-04T06:03:02.250Z,24.83
2018-08-04T06:04:02.360Z,24.77
2018-08-04T06:05:05.440Z,24.90
2018-08-04T06:06:10.475Z,24.90
2018-08-04T06:07:26.658Z,24.83
2018-08-04T06:08:27.802Z,24.82
2018-08-04T06:09:36.709Z,24.87
2018-08-04T06:10:31.904Z,24.83
2018-08-04T06:11:41.952Z,24.90
2018-08-04T06:12:47.177Z,24.87
2018-08-04T06:13:45.136Z,24.90
2018-08-04T06:16:19.046Z,24.85
2018-08-04T06:18:18.764Z,24.97
2018-08-04T06:19:23.064Z,24.97
2018-08-04T06:20:21.434Z,24.94
2018-08-04T06:21:28.612Z,24.92
2018-08-04T06:22:50.740Z,24.98
2018-08-04T06:24:48.911Z,24.85
2018-08-04T06:26:52.744Z,24.97
2018-08-04T06:29:09.870Z,24.94
2018-08-04T06:30:05.240Z,24.98
2018-08-04T06:31:26.334Z,24.92
2018-08-04T06:32:18.969Z,24.98
2018-08-04T06:33:40.890Z,24.98
2018-08-04T06:34:22.019Z,24.95
2018-08-04T06:35:40.395Z,25.02
2018-08-04T06:37:01.704Z,24.92
2018-08-04T06:37:51.266Z,25.00
2018-08-04T06:38:58.966Z,25.01
2018-08-04T06:40:12.482Z,25.07
2018-08-04T06:41:11.055Z,25.10
2018-08-04T06:43:21.415Z,25.16
2018-08-04T06:45:34.950Z,25.19
2018-08-04T06:46:40.484Z,25.24
2018-08-04T06:48:57.192Z,25.31
2018-08-04T06:49:54.640Z,25.20
2018-08-04T06:51:09.702Z,25.22
2018-08-04T06:52:05.717Z,25.27
2018-08-04T06:53:17.557Z,25.28
2018-08-04T06:54:30.107Z,25.24
2018-08-04T06:55:14.140Z,25.37
2018-08-04T06:56:30.942Z,25.38
2018-08-04T06:57:44.978Z,25.38
2018-08-04T06:58:46.933Z,25.34
2018-08-04T06:59:52.063Z,25.47
2018-08-04T07:00:51.968Z,25.49
2018-08-04T07:02:03.558Z,25.42
2018-08-04T07:02:53.523Z,25.43
2018-08-04T07:04:22.211Z,25.43
2018-08-04T07:05:16.891Z,25.46
2018-08-04T07:06:33.943Z,25.53
2018-08-04T07:07:56.028Z,25.59
2018-08-04T07:08:33.402Z,25.62
2018-08-04T07:09:51.021Z,25.50
2018-08-04T07:13:11.219Z,25.68
2018-08-04T07:13:50.669Z,25.52
2018-08-04T07:16:55.895Z,25.68
2018-08-04T07:17:42.797Z,25.64
2018-08-04T07:18:45.878Z,25.69
2018-08-04T07:19:57.358Z,25.72
2018-08-04T07:20:26.746Z,25.71
2018-08-04T07:22:01.268Z,25.82
2018-08-04T07:22:54.339Z,25.80
2018-08-04T07:24:18.488Z,25.83
2018-08-04T07:24:55.977Z,25.86
2018-08-04T07:26:09.493Z,25.86
2018-08-04T07:27:04.486Z,25.89
2018-08-04T07:28:40.462Z,25.89
2018-08-04T07:29:23.861Z,25.89
2018-08-04T07:30:45.988Z,25.87
2018-08-04T07:31:42.922Z,25.86
2018-08-04T07:32:41.498Z,25.86
2018-08-04T07:33:53.902Z,25.86
2018-08-04T07:34:56.772Z,25.98
2018-08-04T07:36:00.569Z,25.91
2018-08-04T07:36:59.860Z,25.99
2018-08-04T07:38:10.522Z,25.97
2018-08-04T07:39:17.797Z,25.93
2018-08-04T07:42:29.702Z,25.94
2018-08-04T07:43:48.756Z,25.99
2018-08-04T07:44:40.682Z,26.02
2018-08-04T07:45:43.141Z,26.05
2018-08-04T07:46:50.421Z,26.11
2018-08-04T07:48:04.881Z,26.02
2018-08-04T07:48:57.204Z,26.06
2018-08-04T07:50:23.528Z,26.01
2018-08-04T07:51:09.465Z,26.04
2018-08-04T07:52:26.208Z,26.04
2018-08-04T07:54:20.996Z,26.12
2018-08-04T07:55:40.563Z,26.09
2018-08-04T07:56:35.757Z,26.11
2018-08-04T07:57:37.814Z,26.08
2018-08-04T07:58:54.924Z,26.12
2018-08-04T07:59:54.727Z,26.24
2018-08-04T08:01:59.250Z,26.22
2018-08-04T08:03:08.884Z,26.36
2018-08-04T08:04:29.989Z,26.35
2018-08-04T08:05:28.974Z,26.39
2018-08-04T08:06:30.321Z,26.43
2018-08-04T08:07:23.766Z,26.39
2018-08-04T08:08:45.706Z,26.49
2018-08-04T08:09:40.479Z,26.49
2018-08-04T08:10:48.854Z,26.49
2018-08-04T08:12:08.043Z,26.49
2018-08-04T08:12:59.039Z,26.55
2018-08-04T08:14:01.097Z,26.52
2018-08-04T08:15:20.250Z,26.49
2018-08-04T08:16:12.988Z,26.52
2018-08-04T08:17:27.542Z,26.65
2018-08-04T08:18:24.577Z,26.61
2018-08-04T08:20:40.571Z,26.61
2018-08-04T08:22:54.612Z,26.77
2018-08-04T08:23:48.068Z,26.67
2018-08-04T08:25:04.766Z,26.79
2018-08-04T08:26:09.075Z,26.79
2018-08-04T08:27:15.226Z,26.77
2018-08-04T08:29:19.754Z,26.80
2018-08-04T08:31:25.543Z,26.89
2018-08-04T08:32:37.621Z,26.81
2018-08-04T08:33:42.840Z,26.92
2018-08-04T08:34:42.526Z,26.86
2018-08-04T08:36:03.124Z,26.86
2018-08-04T08:37:07.530Z,26.91
2018-08-04T08:38:08.055Z,26.94
2018-08-04T08:39:07.855Z,27.04
2018-08-04T08:40:30.320Z,27.02
2018-08-04T08:41:27.234Z,27.10
2018-08-04T08:42:43.516Z,27.16
2018-08-04T08:43:41.478Z,27.13
2018-08-04T08:45:51.120Z,27.26
2018-08-04T08:46:40.783Z,27.21
2018-08-04T08:47:53.705Z,27.35
2018-08-04T08:48:54.228Z,27.35
2018-08-04T08:50:10.610Z,27.39
2018-08-04T08:51:04.985Z,27.41
2018-08-04T08:52:36.534Z,27.43
2018-08-04T08:54:43.516Z,27.53
2018-08-04T08:55:29.599Z,27.59
2018-08-04T08:56:36.572Z,27.58
2018-08-04T08:57:51.634Z,27.67
2018-08-04T09:00:04.864Z,27.71
2018-08-04T09:01:07.228Z,27.66
2018-08-04T09:02:16.558Z,27.73
2018-08-04T09:03:13.494Z,27.80
2018-08-04T09:04:37.260Z,27.85
2018-08-04T09:06:52.640Z,27.77
2018-08-04T09:07:33.089Z,27.88
2018-08-04T09:08:40.743Z,27.95
2018-08-04T09:09:44.878Z,27.88
2018-08-04T09:10:57.382Z,28.03
2018-08-04T09:12:20.641Z,28.07
2018-08-04T09:12:59.451Z,28.01
2018-08-04T09:14:14.120Z,28.14
2018-08-04T09:15:28.448Z,28.07
2018-08-04T09:16:34.293Z,28.11
2018-08-04T09:18:23.558Z,28.17
2018-08-04T09:19:40.465Z,28.19
2018-08-04T09:20:54.706Z,28.23
2018-08-04T09:21:46.212Z,28.25
2018-08-04T09:23:03.276Z,28.31
2018-08-04T09:27:10.214Z,28.38
2018-08-04T09:28:20.972Z,28.50
2018-08-04T09:29:26.202Z,28.58
2018-08-04T09:30:36.042Z,28.56
2018-08-04T09:31:36.049Z,28.58
2018-08-04T09:32:40.460Z,28.69
2018-08-04T09:33:46.815Z,28.69
2018-08-04T09:34:54.713Z,28.63
2018-08-04T09:36:08.541Z,28.63
2018-08-04T09:37:03.738Z,28.72
2018-08-04T09:38:09.482Z,28.78
2018-08-04T09:39:19.114Z,28.81
2018-08-04T09:40:23.352Z,28.85
2018-08-04T09:41:24.356Z,28.93
2018-08-04T09:42:35.222Z,28.91
2018-08-04T09:43:44.549Z,28.95
2018-08-04T09:44:42.846Z,28.96
2018-08-04T09:45:50.402Z,29.08
2018-08-04T09:46:58.707Z,29.08
2018-08-04T09:48:04.963Z,29.20
2018-08-04T09:50:12.084Z,29.25
2018-08-04T09:51:14.305Z,29.26
2018-08-04T09:53:29.381Z,29.43
2018-08-04T09:54:37.683Z,29.44
2018-08-04T09:55:35.031Z,29.45
2018-08-04T09:56:49.987Z,29.49
2018-08-04T09:58:00.135Z,29.53
2018-08-04T09:59:03.117Z,29.52
2018-08-04T10:00:08.681Z,29.60
2018-08-04T10:01:05.688Z,29.66
2018-08-04T10:02:13.175Z,29.77
2018-08-04T10:03:27.213Z,29.78
2018-08-04T10:05:33.269Z,29.78
2018-08-04T10:06:42.603Z,29.89
2018-08-04T10:07:43.528Z,29.96
2018-08-04T10:08:52.236Z,29.92
2018-08-04T10:09:54.208Z,29.97
2018-08-04T10:10:58.919Z,29.99
2018-08-04T10:12:01.068Z,30.03
2018-08-04T10:13:13.776Z,30.11
2018-08-04T10:14:12.863Z,30.16
2018-08-04T10:15:25.979Z,30.12
2018-08-04T10:16:28.549Z,30.19
2018-08-04T10:17:45.454Z,30.12
2018-08-04T10:18:33.482Z,30.24
2018-08-04T10:19:42.096Z,30.30
2018-08-04T10:20:51.007Z,30.36
2018-08-04T10:21:53.172Z,30.38
2018-08-04T10:22:55.022Z,30.43
2018-08-04T10:24:10.184Z,30.47
2018-08-04T10:25:07.228Z,30.49
2018-08-04T10:26:12.969Z,30.49
2018-08-04T10:27:24.555Z,30.54
2018-08-04T10:29:25.082Z,30.64
2018-08-04T10:30:42.498Z,30.69
2018-08-04T10:31:40.055Z,30.71
2018-08-04T10:32:52.863Z,30.78
2018-08-04T10:33:58.605Z,30.78
2018-08-04T10:34:55.540Z,30.80
2018-08-04T10:37:16.346Z,30.83
2018-08-04T10:38:07.650Z,30.94
2018-08-04T10:39:22.404Z,30.93
2018-08-04T10:40:31.132Z,31.04
2018-08-04T10:41:34.511Z,31.05
2018-08-04T10:42:42.187Z,31.05
2018-08-04T10:43:47.432Z,31.18
2018-08-04T10:45:59.219Z,31.23
2018-08-04T10:47:06.804Z,31.30
2018-08-04T10:48:03.545Z,31.28
2018-08-04T10:49:09.384Z,31.17
2018-08-04T10:50:22.700Z,31.33
2018-08-04T10:51:24.143Z,31.36
2018-08-04T10:52:22.307Z,31.45
2018-08-04T10:54:33.178Z,31.58
2018-08-04T10:55:40.255Z,31.55
2018-08-04T10:56:49.071Z,31.65
2018-08-04T15:10:04.845Z,33.14
2018-08-04T15:11:10.284Z,33.08
2018-08-04T15:13:08.792Z,33.06
2018-08-04T15:14:14.314Z,33.06
2018-08-04T15:16:12.830Z,33.08
2018-08-04T15:17:18.332Z,33.10
2018-08-04T15:19:16.949Z,33.06
2018-08-04T15:20:22.458Z,33.11
2018-08-04T15:22:21.059Z,32.99
2018-08-04T15:23:26.566Z,32.99
2018-08-04T15:25:25.092Z,33.06
2018-08-04T15:26:30.589Z,33.10
2018-08-04T15:28:29.091Z,33.04
2018-08-04T15:29:34.617Z,33.04
2018-08-04T15:31:33.125Z,33.06
2018-08-04T15:32:38.631Z,33.11
2018-08-04T15:34:37.131Z,33.13
2018-08-04T15:35:42.650Z,33.11
2018-08-04T15:37:41.169Z,33.26
2018-08-04T15:38:46.671Z,33.30
2018-08-04T15:40:45.188Z,33.23
2018-08-04T15:41:50.690Z,33.26
2018-08-04T15:43:49.194Z,33.20
2018-08-04T15:44:54.713Z,33.19
2018-08-04T15:46:53.222Z,33.14
2018-08-04T15:47:58.827Z,33.11
2018-08-04T15:49:57.761Z,33.15
2018-08-04T15:51:03.254Z,33.13
2018-08-04T15:53:01.761Z,33.15
2018-08-04T15:54:07.275Z,33.13
2018-08-04T15:56:05.801Z,33.13
2018-08-04T15:57:11.301Z,33.10
2018-08-04T15:59:09.832Z,32.99
2018-08-04T16:00:15.351Z,32.99
2018-08-04T16:01:20.875Z,33.01
2018-08-04T16:02:26.395Z,33.06
2018-08-04T16:03:31.917Z,32.98
2018-08-04T16:04:37.449Z,33.03
2018-08-04T16:05:42.967Z,32.99
2018-08-04T16:06:48.488Z,33.06
2018-08-04T16:07:54.026Z,32.98
2018-08-04T16:08:59.535Z,32.96
2018-08-04T16:10:05.071Z,33.04
2018-08-04T16:11:10.585Z,33.10
2018-08-04T16:12:16.109Z,33.03
2018-08-04T16:13:21.634Z,32.96
2018-08-04T16:14:27.172Z,33.01
2018-08-04T16:15:32.682Z,32.99
2018-08-04T16:16:38.226Z,32.89
2018-08-04T16:17:43.729Z,32.89
2018-08-04T16:18:49.257Z,32.92
2018-08-04T16:19:54.781Z,32.93
2018-08-04T16:21:00.311Z,32.89
2018-08-04T16:22:05.824Z,32.92
2018-08-04T16:23:11.348Z,32.84
2018-08-04T16:24:16.921Z,32.80
2018-08-04T16:25:22.407Z,32.84
2018-08-04T16:26:27.927Z,32.80
2018-08-04T16:27:33.453Z,32.77
2018-08-04T16:28:38.966Z,32.73
2018-08-04T16:29:44.496Z,32.71
2018-08-04T16:30:50.029Z,32.70
2018-08-04T16:31:55.541Z,32.71
2018-08-04T16:33:01.068Z,32.64
2018-08-04T16:34:06.589Z,32.59
2018-08-04T16:35:12.113Z,32.64
2018-08-04T16:36:17.646Z,32.58
2018-08-04T16:37:23.171Z,32.66
2018-08-04T16:38:28.693Z,32.80
2018-08-04T16:39:34.216Z,32.74
2018-08-04T16:40:39.732Z,32.88
2018-08-04T16:41:45.362Z,32.85
2018-08-04T16:42:50.790Z,32.89
2018-08-04T16:43:56.308Z,32.77
2018-08-04T16:45:01.832Z,32.92
2018-08-04T16:46:07.352Z,32.74
2018-08-04T16:47:12.877Z,32.74
2018-08-04T16:48:18.407Z,32.71
2018-08-04T16:49:23.956Z,32.66
2018-08-04T16:50:29.448Z,32.57
2018-08-04T16:51:34.971Z,32.58
2018-08-04T16:52:40.493Z,32.43
2018-08-04T16:53:46.044Z,32.51
2018-08-04T16:54:51.552Z,32.86
2018-08-04T16:55:57.067Z,33.03
2018-08-04T16:57:02.590Z,33.13
2018-08-04T16:58:08.118Z,33.39
2018-08-04T16:59:13.650Z,33.42
2018-08-04T17:00:19.167Z,33.41
2018-08-04T17:01:24.684Z,33.30
2018-08-04T17:02:30.222Z,33.13
2018-08-04T17:03:35.745Z,33.04
2018-08-04T17:04:41.267Z,32.88
2018-08-04T17:05:46.780Z,32.85
2018-08-04T17:06:52.305Z,32.73
2018-08-04T17:07:57.829Z,32.64
2018-08-04T17:09:03.359Z,32.62
2018-08-04T17:10:08.887Z,32.66
2018-08-04T17:11:14.404Z,32.51
2018-08-04T17:12:19.985Z,32.54
2018-08-04T17:13:25.457Z,32.57
2018-08-04T17:14:30.973Z,32.37
2018-08-04T17:15:36.495Z,32.40
2018-08-04T17:16:42.030Z,32.36
2018-08-04T17:17:47.546Z,32.33
2018-08-04T17:18:53.072Z,32.36
2018-08-04T17:19:58.612Z,32.32
2018-08-04T17:21:04.113Z,32.21
2018-08-04T17:22:09.675Z,32.20
2018-08-04T17:23:15.160Z,32.25
2018-08-04T17:24:20.697Z,32.20
2018-08-04T17:25:26.219Z,32.21
2018-08-04T17:26:31.735Z,32.13
2018-08-04T17:27:37.257Z,32.13
2018-08-04T17:28:42.785Z,32.06
2018-08-04T17:29:48.308Z,31.93
2018-08-04T17:30:53.839Z,32.03
2018-08-04T17:31:59.353Z,31.95
2018-08-04T17:33:04.881Z,31.87
2018-08-04T17:34:10.401Z,31.93
2018-08-04T17:35:15.928Z,31.92
2018-08-04T17:36:21.447Z,31.79
2018-08-04T17:37:27.033Z,31.76
2018-08-04T17:38:32.496Z,31.84
2018-08-04T17:39:38.019Z,31.75
2018-08-04T17:40:43.543Z,31.68
2018-08-04T17:41:49.067Z,31.76
2018-08-04T17:42:54.593Z,31.65
2018-08-04T17:44:00.121Z,31.57
2018-08-04T17:45:05.633Z,31.61
2018-08-04T17:46:11.155Z,31.57
2018-08-04T17:47:16.680Z,31.49
2018-08-04T17:48:22.207Z,31.43
2018-08-04T17:49:27.730Z,31.35
2018-08-04T17:50:33.252Z,31.39
2018-08-04T17:51:38.772Z,31.36
2018-08-04T17:52:44.297Z,31.35
2018-08-04T17:53:49.836Z,31.30
2018-08-04T17:54:55.356Z,31.27
2018-08-04T17:56:00.869Z,31.23
2018-08-04T17:57:06.457Z,31.23
2018-08-04T17:58:11.914Z,31.26
2018-08-04T17:59:17.443Z,31.26
2018-08-04T18:00:22.962Z,31.20
2018-08-04T18:01:28.505Z,31.01
2018-08-04T18:02:34.007Z,31.04
2018-08-04T18:03:39.540Z,31.01
2018-08-04T18:04:45.057Z,31.01
2018-08-04T18:05:50.576Z,31.06
2018-08-04T18:06:56.101Z,31.02
2018-08-04T18:08:01.619Z,30.96
2018-08-04T18:09:07.147Z,30.94
2018-08-04T18:10:12.668Z,30.96
2018-08-04T18:11:18.194Z,30.84
2018-08-04T18:12:23.714Z,30.75
2018-08-04T18:13:29.239Z,30.80
2018-08-04T18:14:34.761Z,30.81
2018-08-04T18:15:40.286Z,30.86
2018-08-04T18:16:45.806Z,30.74
2018-08-04T18:17:51.336Z,30.65
2018-08-04T18:18:56.853Z,30.56
2018-08-04T18:20:02.433Z,30.59
2018-08-04T18:21:07.895Z,30.50
2018-08-04T18:22:13.417Z,30.53
2018-08-04T18:23:18.940Z,30.37
2018-08-04T18:24:24.453Z,30.38
2018-08-04T18:25:29.996Z,30.36
2018-08-04T18:26:35.509Z,30.30
2018-08-04T18:27:41.038Z,30.29
2018-08-04T18:28:46.593Z,30.15
2018-08-04T18:29:52.189Z,30.18
2018-08-04T18:30:57.616Z,30.07
2018-08-04T18:32:03.126Z,30.00
2018-08-04T18:34:14.171Z,29.87
2018-08-04T18:35:19.708Z,29.82
2018-08-04T18:36:25.215Z,29.87
2018-08-04T18:38:36.543Z,29.82
2018-08-04T18:39:42.034Z,29.84
2018-08-04T18:40:48.598Z,29.79
2018-08-04T18:41:53.614Z,29.82
2018-08-04T18:42:58.602Z,29.79
2018-08-04T18:44:05.157Z,29.74
2018-08-04T18:45:09.665Z,29.75
2018-08-04T18:46:16.174Z,29.68
2018-08-04T18:47:21.641Z,29.62
2018-08-04T18:48:26.257Z,29.59
2018-08-04T18:49:32.780Z,29.60
2018-08-04T18:50:38.222Z,29.53
2018-08-04T18:51:43.787Z,29.40
2018-08-04T18:52:48.326Z,29.40
2018-08-04T18:53:53.836Z,29.22
2018-08-04T18:55:00.414Z,29.20
2018-08-04T18:56:04.925Z,29.15
2018-08-04T18:57:11.440Z,29.15
2018-08-04T18:58:15.939Z,29.13
2018-08-04T18:59:21.476Z,29.20
2018-08-04T19:00:28.031Z,29.26
2018-08-04T19:01:32.521Z,29.13
2018-08-04T19:02:39.026Z,29.16
2018-08-04T19:03:44.435Z,29.23
2018-08-04T19:04:49.097Z,29.15
2018-08-04T19:05:55.588Z,29.16
2018-08-04T19:07:00.093Z,29.10
2018-08-04T19:08:06.631Z,29.15
2018-08-04T19:09:11.175Z,29.08
2018-08-04T19:10:16.695Z,29.04
2018-08-04T19:11:23.688Z,28.97
2018-08-04T19:12:27.703Z,29.00
2018-08-04T19:13:34.244Z,28.96
2018-08-04T19:14:39.457Z,29.01
2018-08-04T19:15:44.355Z,28.90
2018-08-04T19:16:50.830Z,28.88
2018-08-04T19:17:55.296Z,28.90
2018-08-04T19:19:01.853Z,28.87
2018-08-04T19:20:06.404Z,28.80
2018-08-04T19:21:11.892Z,28.75
2018-08-04T19:22:18.504Z,28.70
2018-08-04T19:23:22.959Z,28.73
2018-08-04T19:24:29.458Z,28.69
2018-08-04T19:25:33.976Z,28.68
2018-08-04T19:26:40.557Z,28.68
2018-08-04T19:27:46.032Z,28.66
2018-08-04T19:28:50.521Z,28.62
2018-08-04T19:29:57.050Z,28.68
2018-08-04T19:31:01.581Z,28.66
2018-08-04T19:32:07.089Z,28.54
2018-08-04T19:33:13.636Z,28.59
2018-08-04T19:34:18.971Z,28.50
2018-08-04T19:35:25.663Z,28.53
2018-08-04T19:36:30.132Z,28.46
2018-08-04T19:37:34.728Z,28.54
2018-08-04T19:38:41.246Z,28.40
2018-08-04T19:39:45.749Z,28.40
2018-08-04T19:40:52.317Z,28.33
2018-08-04T19:41:56.805Z,28.41
2018-08-04T19:43:02.313Z,28.35
2018-08-04T19:44:08.848Z,28.40
2018-08-04T19:45:14.216Z,28.31
2018-08-04T19:46:19.898Z,28.32
2018-08-04T19:47:24.413Z,28.31
2018-08-04T19:48:30.678Z,28.28
2018-08-04T19:49:36.460Z,28.26
2018-08-04T19:50:40.967Z,28.13
2018-08-04T19:51:47.546Z,28.11
2018-08-04T19:52:52.047Z,28.13
2018-08-04T19:53:57.525Z,28.11
2018-08-04T19:55:04.093Z,28.17
2018-08-04T19:56:08.571Z,28.07
2018-08-04T19:57:15.126Z,27.98
2018-08-04T19:58:20.533Z,28.06
2018-08-04T19:59:25.160Z,27.99
2018-08-04T20:00:31.672Z,27.95
2018-08-04T20:01:36.201Z,27.88
2018-08-04T20:02:42.707Z,27.98
2018-08-04T20:03:47.277Z,27.88